Time;durP1;ratioP1;P1;durP2;ratioP2;P2;SDS_P1;SDS_P2;PMS_P1;PMS_P2;Temp;Humidity;BMP_temperature;BMP_pressure;BME280_temperature;BME280_humidity;BME280_pressure;Samples;Min_cycle;Max_cycle;Signal;HPM_P1;HPM_P2
2021/06/11 00:02:07;;;;;;;4.80;4.40;;;;;;;16.75;87.64;96782.34;4967497;28;20045;-74
2021/06/11 00:04:33;;;;;;;5.85;3.97;;;;;;;16.94;87.09;96764.94;4967403;28;20097;-72
2021/06/11 00:06:58;;;;;;;7.45;4.60;;;;;;;17.14;87.39;96793.06;4967878;28;20047;-73
2021/06/11 00:09:24;;;;;;;7.60;4.70;;;;;;;17.10;87.48;96795.13;4967797;28;20027;-73
2021/06/11 00:11:49;;;;;;;6.30;4.47;;;;;;;17.09;87.16;96759.94;4965577;28;20039;-74
2021/06/11 00:14:16;;;;;;;5.13;4.68;;;;;;;17.11;87.83;96788.31;4966197;28;20037;-73
2021/06/11 00:16:41;;;;;;;5.55;4.80;;;;;;;16.85;88.18;96728.25;4966860;28;20484;-74
2021/06/11 00:19:07;;;;;;;5.00;4.53;;;;;;;17.26;87.34;96778.53;4967466;28;20039;-73
2021/06/11 00:21:32;;;;;;;5.75;4.30;;;;;;;16.63;86.37;96670.25;4965674;28;20042;-74
2021/06/11 00:23:58;;;;;;;5.18;4.68;;;;;;;17.37;86.04;96777.16;4968294;28;20027;-75
2021/06/11 00:26:23;;;;;;;8.00;4.60;;;;;;;17.25;86.38;96762.94;4281871;28;20005043;-74
2021/06/11 00:28:49;;;;;;;5.97;4.82;;;;;;;17.08;85.86;96730.38;4967528;28;20026;-74
2021/06/11 00:31:14;;;;;;;5.75;4.47;;;;;;;17.29;86.73;96780.50;4967003;28;20073;-75
2021/06/11 00:33:40;;;;;;;7.07;4.70;;;;;;;16.82;86.65;96700.34;4965767;28;20081;-75
2021/06/11 00:36:06;;;;;;;6.15;4.60;;;;;;;17.27;86.76;96777.31;4967276;28;20030;-75
2021/06/11 00:38:32;;;;;;;9.38;4.72;;;;;;;17.27;86.97;96782.91;4965839;28;20042;-75
2021/06/11 00:40:58;;;;;;;6.15;5.40;;;;;;;17.05;86.87;96726.44;4982041;28;20113;-75
2021/06/11 00:43:23;;;;;;;5.78;5.00;;;;;;;17.07;87.10;96740.00;4967485;28;20827;-76
2021/06/11 00:45:49;;;;;;;5.18;4.68;;;;;;;17.37;87.05;96770.78;4964195;28;20411;-76
2021/06/11 00:48:14;;;;;;;5.80;5.20;;;;;;;17.30;86.88;96771.66;4967408;28;20050;-75
2021/06/11 00:50:40;;;;;;;12.27;5.93;;;;;;;17.01;86.36;96703.28;4964878;28;20065;-73
2021/06/11 00:53:08;;;;;;;6.00;5.13;;;;;;;17.40;87.14;96773.50;4966727;28;20093;-75
2021/06/11 00:55:35;;;;;;;7.00;5.18;;;;;;;17.36;87.27;96774.78;4965137;28;20501;-76
2021/06/11 00:58:00;;;;;;;8.30;5.63;;;;;;;17.33;87.40;96775.63;4966495;28;20070;-75
2021/06/11 01:00:26;;;;;;;7.90;5.28;;;;;;;17.21;86.99;96756.59;4966242;28;20129;-75
2021/06/11 01:02:51;;;;;;;10.70;4.78;;;;;;;17.28;87.09;96779.69;4966381;28;20039;-72
2021/06/11 01:05:17;;;;;;;7.38;5.07;;;;;;;17.18;87.96;96779.84;4965887;28;20027;-74
2021/06/11 01:07:47;;;;;;;9.15;5.95;;;;;;;17.16;88.30;96765.47;4964915;28;20039;-74
2021/06/11 01:10:13;;;;;;;6.88;5.15;;;;;;;16.91;88.95;96748.19;4966139;28;20042;-75
2021/06/11 01:12:39;;;;;;;6.15;4.95;;;;;;;16.91;88.08;96725.81;4966147;28;20598;-74
2021/06/11 01:15:07;;;;;;;6.10;4.70;;;;;;;17.22;88.13;96774.97;4965011;28;20117;-74
2021/06/11 01:17:35;;;;;;;6.80;5.25;;;;;;;17.26;87.75;96776.50;4966217;28;20306;-74
2021/06/11 01:20:06;;;;;;;6.72;5.10;;;;;;;16.81;88.54;96719.13;4966113;28;20465;-74
2021/06/11 01:22:56;;;;;;;9.63;5.38;;;;;;;17.04;89.58;96768.81;4966530;28;20038;-74
2021/06/11 01:25:53;;;;;;;6.95;5.75;;;;;;;17.14;89.07;96773.47;4964125;28;20062;-74
2021/06/11 01:28:21;;;;;;;7.15;5.18;;;;;;;17.15;89.37;96766.69;4964378;28;20066;-73
2021/06/11 01:30:48;;;;;;;7.53;5.65;;;;;;;17.16;89.27;96759.88;4964076;28;20035;-74
2021/06/11 01:33:15;;;;;;;7.43;4.97;;;;;;;17.18;89.09;96763.03;4964053;28;20031;-72
2021/06/11 01:35:45;;;;;;;6.93;5.60;;;;;;;17.12;89.30;96771.09;4965494;28;20034;-74
2021/06/11 01:38:18;;;;;;;8.00;5.95;;;;;;;17.05;89.50;96764.81;4965722;28;20043;-73
2021/06/11 01:40:44;;;;;;;7.25;5.40;;;;;;;16.73;89.87;96722.44;4965481;28;20077;-75
2021/06/11 01:43:11;;;;;;;8.45;5.90;;;;;;;16.96;89.82;96756.91;4964050;28;20050;-72
2021/06/11 01:45:37;;;;;;;8.10;5.55;;;;;;;16.70;89.76;96714.88;4965381;28;20122;-75
2021/06/11 01:48:03;;;;;;;6.57;5.00;;;;;;;16.33;89.60;96652.19;4964330;28;20042;-76
2021/06/11 01:50:34;;;;;;;5.82;5.18;;;;;;;17.01;89.42;96748.06;4965329;28;20090;-75
2021/06/11 01:53:02;;;;;;;7.38;4.78;;;;;;;17.02;88.51;96743.25;4980460;28;20068;-73
2021/06/11 01:55:28;;;;;;;6.20;5.30;;;;;;;17.05;88.59;96743.22;4965194;28;20508;-75
2021/06/11 01:57:56;;;;;;;5.10;4.60;;;;;;;17.03;88.71;96740.03;4964801;28;20038;-75
2021/06/11 02:00:21;;;;;;;8.00;4.65;;;;;;;16.70;89.01;96692.50;4965115;28;20023;-75
2021/06/11 02:02:47;;;;;;;8.60;5.15;;;;;;;17.02;89.86;96737.66;4965534;28;20065;-72
2021/06/11 02:05:14;;;;;;;8.73;5.25;;;;;;;16.70;89.08;96673.72;4965196;28;20035;-75
2021/06/11 02:07:41;;;;;;;5.95;4.32;;;;;;;16.84;88.75;96687.53;4964240;28;20564;-75
2021/06/11 02:10:09;;;;;;;8.07;5.25;;;;;;;17.14;88.54;96742.69;4965089;28;20113;-75
2021/06/11 02:12:36;;;;;;;5.68;5.18;;;;;;;17.10;89.65;96736.34;4963710;28;20049;-74
2021/06/11 02:15:03;;;;;;;6.07;4.95;;;;;;;17.08;90.35;96733.19;4964980;28;20026;-75
2021/06/11 02:17:30;;;;;;;12.55;6.75;;;;;;;16.52;90.56;96698.31;4963354;28;20030;-74
2021/06/11 02:19:56;;;;;;;5.63;5.13;;;;;;;17.08;90.00;96733.97;4965216;28;20078;-74
2021/06/11 02:22:22;;;;;;;6.85;5.20;;;;;;;17.09;89.60;96738.34;4979264;28;20042;-72
2021/06/11 02:24:48;;;;;;;5.28;4.78;;;;;;;17.15;88.85;96735.91;4964994;28;20039;-74
2021/06/11 02:27:15;;;;;;;5.57;5.07;;;;;;;17.11;89.12;96735.94;4979375;28;20037;-74
2021/06/11 02:29:40;;;;;;;5.50;4.93;;;;;;;17.10;89.08;96727.97;4965258;28;20057;-71
2021/06/11 02:32:06;;;;;;;7.10;4.93;;;;;;;16.63;89.57;96670.25;4964605;28;20498;-74
2021/06/11 02:34:32;;;;;;;6.55;5.35;;;;;;;16.64;89.45;96655.84;4964714;28;20165;-75
2021/06/11 02:36:58;;;;;;;5.30;4.90;;;;;;;17.08;89.26;96738.78;4964899;28;20126;-75
2021/06/11 02:39:24;;;;;;;8.70;5.22;;;;;;;16.66;89.82;96680.59;4964783;28;20069;-75
2021/06/11 02:41:59;;;;;;;6.63;5.18;;;;;;;17.07;89.40;96742.78;4964768;28;20388;-76
2021/06/11 02:44:30;;;;;;;6.88;5.18;;;;;;;17.11;88.77;96749.94;4979838;28;20065;-75
2021/06/11 02:47:03;;;;;;;6.97;5.88;;;;;;;17.14;89.03;96773.47;4964819;28;20129;-73
2021/06/11 02:49:53;;;;;;;7.32;5.72;;;;;;;17.15;89.02;96752.69;4962924;28;20432;-75
2021/06/11 02:52:22;;;;;;;10.13;5.75;;;;;;;17.11;89.20;96751.94;4962452;28;20109;-73
2021/06/11 02:54:50;;;;;;;9.98;5.30;;;;;;;16.66;90.08;96686.19;4964794;28;20106;-75
2021/06/11 02:57:22;;;;;;;7.75;5.55;;;;;;;17.08;90.43;96747.16;4964269;28;20039;-75
2021/06/11 03:00:04;;;;;;;8.75;5.30;;;;;;;17.08;90.66;96761.97;4964609;28;20121;-75
2021/06/11 03:02:35;;;;;;;7.30;5.80;;;;;;;17.13;90.46;96750.31;4965119;28;20069;-74
2021/06/11 03:05:01;;;;;;;8.13;5.47;;;;;;;17.24;89.80;96744.56;4963409;28;20604;-76
2021/06/11 03:07:29;;;;;;;13.93;6.25;;;;;;;16.83;90.09;96697.16;4963410;28;20166;-74
2021/06/11 03:09:57;;;;;;;14.43;6.22;;;;;;;16.89;90.37;96723.44;4968405;28;20114;-71
2021/06/11 03:12:24;;;;;;;7.70;5.70;;;;;;;17.22;90.96;96758.19;4968281;28;20073;-75
2021/06/11 03:14:52;;;;;;;8.50;5.55;;;;;;;17.26;90.01;96764.53;4968321;28;20030;-75
2021/06/11 03:17:19;;;;;;;7.55;6.00;;;;;;;17.29;90.00;96763.69;4966517;28;20031;-76
2021/06/11 03:19:51;;;;;;;8.55;5.63;;;;;;;17.37;89.20;96765.19;4966910;28;20046;-74
2021/06/11 03:22:22;;;;;;;7.93;5.97;;;;;;;17.31;89.19;96752.88;4968631;28;20034;-72
2021/06/11 03:24:58;;;;;;;9.43;6.15;;;;;;;17.39;88.75;96754.34;4968313;28;20030;-73
2021/06/11 03:27:32;;;;;;;5.30;4.50;;;;;;;17.51;86.99;96759.41;4966684;28;20042;-75
2021/06/11 03:30:07;;;;;;;5.70;4.63;;;;;;;17.38;87.20;96744.34;4966710;28;20035;-72
2021/06/11 03:32:38;;;;;;;7.05;4.85;;;;;;;17.47;86.91;96761.44;4966614;28;20049;-76
2021/06/11 03:35:10;;;;;;;5.22;4.57;;;;;;;17.57;86.59;96761.31;4966939;28;20062;-76
2021/06/11 03:37:36;;;;;;;7.30;4.90;;;;;;;17.61;86.72;96758.44;4968337;28;20053;-73
2021/06/11 03:40:07;;;;;;;5.75;5.20;;;;;;;17.08;86.04;96668.81;4968696;28;20043;-77
2021/06/11 03:42:32;;;;;;;7.57;4.60;;;;;;;17.38;85.62;96721.97;4968386;28;20038;-76
2021/06/11 03:45:00;;;;;;;5.35;4.85;;;;;;;17.75;85.39;96759.03;4968071;28;20038;-73
2021/06/11 03:47:32;;;;;;;7.93;5.18;;;;;;;17.84;85.21;96750.88;4966428;28;20035;-71
2021/06/11 03:49:59;;;;;;;6.95;4.70;;;;;;;17.87;84.25;96758.44;4967760;28;20037;-75
2021/06/11 03:52:27;;;;;;;9.63;5.32;;;;;;;17.41;85.60;96716.31;4967513;28;20066;-76
2021/06/11 03:55:02;;;;;;;6.72;4.55;;;;;;;17.52;84.62;96711.38;4967971;28;20039;-74
2021/06/11 03:57:29;;;;;;;7.25;4.97;;;;;;;17.92;84.12;96768.38;4967342;28;20134;-74
2021/06/11 03:59:55;;;;;;;5.43;4.53;;;;;;;17.88;83.65;96757.22;4966262;28;20034;-72
2021/06/11 04:02:20;;;;;;;6.07;4.07;;;;;;;17.87;84.35;96766.06;4967367;28;20534;-76
2021/06/11 04:04:46;;;;;;;4.80;4.40;;;;;;;16.29;84.02;96506.09;4967268;28;20030;-73
2021/06/11 04:07:34;;;;;;;8.05;3.90;;;;;;;18.04;82.90;96770.56;4967248;28;20370;-74
2021/06/11 04:10:08;;;;;;;6.82;4.28;;;;;;;18.02;83.40;96775.81;4967477;28;20117;-75
2021/06/11 04:12:48;;;;;;;7.07;4.40;;;;;;;17.92;83.96;96768.38;4966356;28;20055;-74
2021/06/11 04:15:14;;;;;;;8.85;4.65;;;;;;;17.24;83.87;96668.97;4965176;28;20030;-75
2021/06/11 04:17:42;;;;;;;10.88;4.82;;;;;;;18.09;83.11;96775.69;4967232;28;20565;-75
2021/06/11 04:20:28;;;;;;;7.55;4.10;;;;;;;18.21;83.15;96779.91;4964316;28;20030;-75
2021/06/11 04:22:57;;;;;;;6.40;4.05;;;;;;;18.34;81.86;96767.66;4966864;28;20047;-73
2021/06/11 04:25:29;;;;;;;5.05;4.40;;;;;;;18.63;79.87;96782.78;4965319;28;20058;-75
2021/06/11 04:27:55;;;;;;;5.43;3.90;;;;;;;18.47;79.52;96737.00;4967153;28;20123;-74
2021/06/11 04:30:21;;;;;;;6.90;4.03;;;;;;;18.59;78.50;96744.78;4965006;28;20490;-76
2021/06/11 04:32:48;;;;;;;11.43;5.00;;;;;;;18.67;77.47;96721.75;4967229;28;20043;-73
2021/06/11 04:35:14;;;;;;;4.80;4.10;;;;;;;19.13;77.58;96774.97;4964809;28;20041;-73
2021/06/11 04:37:39;;;;;;;5.00;3.72;;;;;;;18.74;76.43;96706.81;4981219;28;20043;-75
2021/06/11 04:40:07;;;;;;;5.32;3.60;;;;;;;19.46;75.29;96782.31;4964865;28;20443;-73
2021/06/11 04:42:34;;;;;;;5.47;4.10;;;;;;;19.02;75.73;96712.63;4965018;28;20229;-75
2021/06/11 04:45:00;;;;;;;5.13;4.13;;;;;;;19.62;74.98;96781.53;4966575;28;20034;-72
2021/06/11 04:47:27;;;;;;;11.43;3.97;;;;;;;19.79;74.51;96788.00;4964752;28;20549;-75
2021/06/11 04:49:54;;;;;;;6.05;3.15;;;;;;;19.61;74.42;96737.03;4967173;28;20317;-75
2021/06/11 04:52:19;;;;;;;4.22;3.75;;;;;;;19.50;73.92;96721.22;4965758;28;20043;-73
2021/06/11 04:54:45;;;;;;;4.63;4.13;;;;;;;19.70;73.25;96734.38;4964977;28;20413;-74
2021/06/11 04:57:10;;;;;;;8.30;3.83;;;;;;;20.11;73.25;96785.22;4964297;28;20096;-75
2021/06/11 04:59:36;;;;;;;7.63;3.60;;;;;;;19.75;73.89;96742.31;4966567;28;20026;-71
2021/06/11 05:02:01;;;;;;;8.35;4.10;;;;;;;20.08;73.93;96783.28;4966145;28;20034;-72
2021/06/11 05:04:27;;;;;;;16.70;3.80;;;;;;;20.03;73.32;96764.13;4981122;28;20035;-71
2021/06/11 05:06:53;;;;;;;7.85;3.47;;;;;;;20.13;72.04;96771.50;4966434;28;20647;-73
2021/06/11 05:09:19;;;;;;;10.35;4.22;;;;;;;20.19;72.69;96795.09;4965062;28;20177;-74
2021/06/11 05:11:47;;;;;;;11.05;5.03;;;;;;;20.04;73.37;96796.66;4964195;28;20608;-74
2021/06/11 05:14:12;;;;;;;9.52;3.88;;;;;;;20.05;71.90;96789.78;4981136;28;20035;-75
2021/06/11 05:16:38;;;;;;;6.05;4.53;;;;;;;20.07;72.90;96798.56;4980676;28;20034;-71
2021/06/11 05:19:04;;;;;;;5.55;4.25;;;;;;;19.52;74.02;96763.69;4966178;28;20584;-75
2021/06/11 05:21:30;;;;;;;5.53;4.20;;;;;;;19.86;73.07;96759.72;4965728;28;20569;-75
2021/06/11 05:23:55;;;;;;;5.95;3.78;;;;;;;20.25;72.69;96810.22;4966324;28;20043;-75
2021/06/11 05:26:21;;;;;;;6.25;3.78;;;;;;;20.38;72.73;96805.47;4965988;28;20046;-74
2021/06/11 05:28:46;;;;;;;5.03;3.63;;;;;;;20.53;72.10;96820.78;4964714;28;20050;-72
2021/06/11 05:31:12;;;;;;;4.35;3.38;;;;;;;20.68;71.64;96810.72;4965386;28;20500;-74
2021/06/11 05:33:37;;;;;;;5.45;3.60;;;;;;;20.74;71.53;96814.56;4965906;28;20457;-75
2021/06/11 05:36:03;;;;;;;4.40;4.00;;;;;;;20.87;69.95;96818.25;4963673;28;20050;-72
2021/06/11 05:38:29;;;;;;;3.80;3.40;;;;;;;20.77;69.37;96796.81;4964086;28;20057;-75
2021/06/11 05:40:55;;;;;;;6.25;4.55;;;;;;;21.01;70.30;96817.88;4965543;28;20038;-74
2021/06/11 05:43:20;;;;;;;6.22;3.97;;;;;;;20.85;71.06;96792.53;4966026;28;20075;-74
2021/06/11 05:45:46;;;;;;;5.80;3.85;;;;;;;21.09;70.38;96829.78;4963407;28;20054;-75
2021/06/11 05:48:12;;;;;;;5.15;4.63;;;;;;;21.04;70.71;96816.22;4965471;28;20045;-73
2021/06/11 05:50:37;;;;;;;8.35;4.80;;;;;;;21.19;70.70;96832.28;4964229;28;20115;-75
2021/06/11 05:53:03;;;;;;;11.20;4.90;;;;;;;21.02;72.21;96825.13;4965155;28;20038;-74
2021/06/11 05:55:29;;;;;;;8.32;4.78;;;;;;;21.05;71.75;96824.22;4965070;28;20035;-76
2021/06/11 05:57:55;;;;;;;7.80;4.65;;;;;;;21.44;70.21;96818.28;4965256;28;20129;-75
2021/06/11 06:00:21;;;;;;;9.95;4.80;;;;;;;21.27;69.42;96757.59;4965068;28;20121;-72
2021/06/11 06:02:47;;;;;;;7.15;5.25;;;;;;;21.58;68.70;96829.13;4962623;28;20035;-71
2021/06/11 06:05:13;;;;;;;8.98;5.05;;;;;;;21.97;67.79;96786.44;4952830;28;20050;-64
2021/06/11 06:07:39;;;;;;;8.43;5.82;;;;;;;22.35;66.50;96823.91;4965099;28;20170;-71
2021/06/11 06:10:06;;;;;;;9.18;5.28;;;;;;;21.28;66.68;96683.06;4963814;28;20321;-64
2021/06/11 06:12:32;;;;;;;6.75;5.45;;;;;;;22.11;65.93;96771.88;4962433;28;20182;-62
2021/06/11 06:14:58;;;;;;;9.82;5.97;;;;;;;22.80;64.36;96825.66;4964250;28;20117;-61
2021/06/11 06:17:25;;;;;;;11.23;4.82;;;;;;;22.81;63.80;96886.56;4964681;28;20096;-71
2021/06/11 06:19:50;;;;;;;5.28;4.78;;;;;;;23.02;62.23;96851.94;4962014;28;20042;-66
2021/06/11 06:22:16;;;;;;;6.20;5.30;;;;;;;23.26;61.70;96828.47;4962458;28;20621;-65
2021/06/11 06:24:41;;;;;;;8.35;5.13;;;;;;;23.39;60.34;96820.72;4964487;28;20061;-62
2021/06/11 06:27:07;;;;;;;7.38;5.10;;;;;;;23.34;60.95;96792.25;4964472;28;20066;-69
2021/06/11 06:29:33;;;;;;;5.75;4.97;;;;;;;23.74;60.13;96852.56;4959422;28;20513;-67
2021/06/11 06:31:58;;;;;;;7.63;4.50;;;;;;;23.78;57.77;96827.72;4960310;28;20041;-61
2021/06/11 06:34:25;;;;;;;6.45;4.85;;;;;;;23.40;58.11;96781.91;4964662;28;20517;-71
2021/06/11 06:36:52;;;;;;;5.15;4.43;;;;;;;23.75;57.43;96820.97;4963589;28;20043;-68
2021/06/11 06:39:18;;;;;;;8.98;4.72;;;;;;;23.76;57.27;96821.75;4963582;28;20042;-62
2021/06/11 06:41:44;;;;;;;7.18;4.20;;;;;;;23.74;57.57;96825.03;4963992;28;20105;-67
2021/06/11 06:44:11;;;;;;;4.78;4.32;;;;;;;23.94;56.45;96821.84;4962893;28;20039;-64
2021/06/11 06:46:38;;;;;;;4.80;4.40;;;;;;;24.13;56.58;96817.91;4963254;28;20039;-61
2021/06/11 06:49:04;;;;;;;9.30;4.25;;;;;;;24.16;53.95;96782.19;4964254;28;20039;-61
2021/06/11 06:51:32;;;;;;;10.13;4.10;;;;;;;23.65;52.58;96688.41;4963232;28;20046;-73
2021/06/11 06:53:59;;;;;;;5.18;4.07;;;;;;;24.22;52.23;96786.78;4961820;28;20233;-60
2021/06/11 06:56:25;;;;;;;7.32;4.35;;;;;;;24.39;51.57;96790.91;4964443;28;20031;-60
2021/06/11 06:58:51;;;;;;;4.90;4.05;;;;;;;24.60;50.57;96801.38;4962931;28;20042;-69
2021/06/11 07:01:17;;;;;;;4.47;4.10;;;;;;;24.52;49.12;96766.09;4964505;28;20031;-68
2021/06/11 07:03:42;;;;;;;5.57;5.05;;;;;;;24.97;49.38;96811.56;4962810;28;20589;-61
2021/06/11 07:06:08;;;;;;;7.25;5.07;;;;;;;25.17;48.59;96806.22;4950274;28;20105;-60
2021/06/11 07:08:33;;;;;;;7.40;4.82;;;;;;;24.29;50.35;96803.50;4964129;28;20042;-70
2021/06/11 07:10:59;;;;;;;13.27;5.07;;;;;;;24.19;52.16;96807.53;4962427;28;20041;-65
2021/06/11 07:13:25;;;;;;;4.75;4.28;;;;;;;24.07;52.12;96808.44;4958395;28;20067;-67
2021/06/11 07:15:51;;;;;;;5.75;5.10;;;;;;;24.19;52.91;96804.69;4963399;28;20038;-64
2021/06/11 07:18:17;;;;;;;4.93;4.38;;;;;;;24.72;51.32;96752.31;4964367;28;20235;-68
2021/06/11 07:20:43;;;;;;;5.32;4.78;;;;;;;24.69;50.33;96676.00;4962247;28;20090;-63
2021/06/11 07:23:08;;;;;;;6.85;4.95;;;;;;;26.19;48.23;96810.00;4962600;28;20035;-67
2021/06/11 07:25:34;;;;;;;5.97;5.47;;;;;;;26.32;47.19;96770.06;4962266;28;20035;-63
2021/06/11 07:27:59;;;;;;;6.63;5.53;;;;;;;26.62;45.59;96766.06;4964215;28;20134;-62
2021/06/11 07:30:24;;;;;;;5.22;4.72;;;;;;;26.86;45.50;96769.72;4963850;28;20447;-66
2021/06/11 07:32:50;;;;;;;6.55;5.78;;;;;;;24.27;46.70;96463.44;4964409;28;20031;-65
2021/06/11 07:35:15;;;;;;;6.15;5.65;;;;;;;26.30;45.42;96733.56;4963650;28;20037;-68
2021/06/11 07:37:42;;;;;;;5.80;5.13;;;;;;;26.76;46.22;96759.72;4962708;28;20050;-65
2021/06/11 07:40:10;;;;;;;11.52;5.13;;;;;;;27.15;45.61;96798.28;4963224;28;20651;-72
2021/06/11 07:42:36;;;;;;;9.95;5.70;;;;;;;26.94;46.81;96778.66;4963530;28;20043;-65
2021/06/11 07:45:05;;;;;;;7.00;5.25;;;;;;;26.89;46.77;96817.09;4964169;28;20035;-73
2021/06/11 07:47:30;;;;;;;5.95;5.38;;;;;;;25.90;47.84;96669.88;4964265;28;20422;-61
2021/06/11 07:49:56;;;;;;;6.18;5.57;;;;;;;26.57;47.44;96792.31;4963937;28;20033;-73
2021/06/11 07:52:21;;;;;;;7.25;6.55;;;;;;;26.07;45.65;96759.09;4962668;28;20461;-60
2021/06/11 07:54:47;;;;;;;8.20;5.72;;;;;;;24.92;48.92;96775.34;4964300;28;20044;-65
2021/06/11 07:57:12;;;;;;;6.13;5.57;;;;;;;24.70;48.07;96715.19;4965151;28;20054;-72
2021/06/11 07:59:37;;;;;;;6.43;5.55;;;;;;;24.89;49.06;96798.94;4965955;28;20181;-69
2021/06/11 08:02:03;;;;;;;7.63;5.28;;;;;;;25.13;48.66;96768.69;4967120;28;20065;-67
2021/06/11 08:04:31;;;;;;;7.38;6.22;;;;;;;25.26;48.79;96755.16;4967468;28;20497;-65
2021/06/11 08:06:56;;;;;;;5.75;5.25;;;;;;;25.04;48.07;96745.22;4967600;28;20126;-63
2021/06/11 08:09:22;;;;;;;7.93;5.45;;;;;;;24.78;48.40;96739.13;4961169;28;20141;-70
2021/06/11 08:11:47;;;;;;;7.72;6.50;;;;;;;23.75;48.50;96576.91;4966915;28;20114;-67
2021/06/11 08:14:13;;;;;;;6.80;4.80;;;;;;;25.13;49.06;96788.53;4966429;28;20038;-64
2021/06/11 08:16:38;;;;;;;5.45;3.35;;;;;;;24.69;48.08;96792.91;4965205;28;20322;-63
2021/06/11 08:19:04;;;;;;;6.88;3.20;;;;;;;24.01;49.95;96750.06;4965435;28;20038;-63
2021/06/11 08:21:29;;;;;;;9.48;4.05;;;;;;;24.34;50.07;96800.06;4966464;28;20082;-70
2021/06/11 08:23:54;;;;;;;5.30;3.75;;;;;;;24.13;50.00;96789.59;4966987;28;20039;-70
2021/06/11 08:26:20;;;;;;;7.78;3.65;;;;;;;23.36;51.08;96696.47;4966969;28;20097;-70
2021/06/11 08:28:45;;;;;;;5.07;3.92;;;;;;;24.00;50.93;96799.41;4966896;28;20035;-61
2021/06/11 08:31:11;;;;;;;4.53;3.97;;;;;;;23.34;51.17;96715.91;4966726;28;20037;-70
2021/06/11 08:33:37;;;;;;;4.05;3.47;;;;;;;23.91;52.06;96811.47;4965329;28;20030;-62
2021/06/11 08:36:03;;;;;;;4.18;3.63;;;;;;;23.81;50.70;96795.69;4966557;28;20459;-71
2021/06/11 08:38:28;;;;;;;7.50;5.07;;;;;;;23.42;51.74;96739.84;4966286;28;20046;-70
2021/06/11 08:40:54;;;;;;;6.50;4.35;;;;;;;23.83;51.29;96785.50;4964736;28;20039;-69
2021/06/11 08:43:20;;;;;;;6.45;4.30;;;;;;;23.93;50.93;96786.34;4966783;28;20492;-62
2021/06/11 08:45:47;;;;;;;6.13;3.97;;;;;;;23.78;52.02;96791.75;4964263;28;20039;-70
2021/06/11 08:48:13;;;;;;;5.40;3.55;;;;;;;23.52;52.01;96730.19;4965425;28;20049;-62
2021/06/11 08:50:41;;;;;;;6.20;3.80;;;;;;;23.98;51.45;96788.56;4965988;28;20027;-61
2021/06/11 08:53:07;;;;;;;7.68;3.85;;;;;;;24.08;51.41;96795.06;4964853;28;20536;-62
2021/06/11 08:55:34;;;;;;;6.40;4.95;;;;;;;24.33;52.41;96803.34;4965987;28;20035;-72
2021/06/11 08:57:59;;;;;;;4.13;3.72;;;;;;;24.03;52.32;96807.78;4965419;28;20053;-61
2021/06/11 09:00:27;;;;;;;7.15;4.72;;;;;;;24.33;52.44;96801.28;4965019;28;20097;-59
2021/06/11 09:03:11;;;;;;;4.10;3.70;;;;;;;24.25;53.05;96802.06;4964885;28;20089;-69
2021/06/11 09:05:54;;;;;;;5.85;4.70;;;;;;;24.11;53.79;96792.09;4965425;28;20090;-70
2021/06/11 09:08:23;;;;;;;6.28;3.50;;;;;;;24.13;53.40;96806.56;4966462;28;20042;-62
2021/06/11 09:10:50;;;;;;;5.40;3.75;;;;;;;22.38;52.51;96537.91;4963512;28;20126;-68
2021/06/11 09:13:29;;;;;;;3.63;3.33;;;;;;;23.94;52.45;96804.88;4963576;28;20536;-69
2021/06/11 09:16:23;;;;;;;4.22;3.88;;;;;;;23.79;54.89;96798.19;4958596;28;20035;-68
2021/06/11 09:18:53;;;;;;;3.72;3.42;;;;;;;23.81;56.54;96801.34;4952411;28;20113;-66
2021/06/11 09:21:30;;;;;;;6.68;3.85;;;;;;;23.67;58.68;96779.25;4965277;28;20054;-71
2021/06/11 09:29:41;;;;;;;6.65;5.40;;;;;;;23.49;61.67;96813.09;4965644;28;20141;-69
2021/06/11 09:32:19;;;;;;;6.30;4.20;;;;;;;23.30;60.99;96819.88;4963875;28;20403;-68
2021/06/11 09:34:48;;;;;;;6.72;3.92;;;;;;;23.15;60.30;96832.91;4966339;28;20420;-61
2021/06/11 09:37:19;;;;;;;5.20;3.75;;;;;;;23.03;61.18;96836.56;4965547;28;20106;-64
2021/06/11 09:39:56;;;;;;;4.28;3.88;;;;;;;22.72;59.90;96804.56;4964594;28;20564;-68
2021/06/11 09:42:25;;;;;;;4.20;3.33;;;;;;;22.39;58.96;96850.00;4965782;28;20030;-68
2021/06/11 09:44:56;;;;;;;6.45;3.40;;;;;;;21.85;60.43;96838.00;4965979;28;20166;-68
2021/06/11 09:47:35;;;;;;;4.30;3.17;;;;;;;21.72;61.13;96839.97;4965622;28;20031;-68
2021/06/11 09:50:11;;;;;;;4.78;3.60;;;;;;;21.69;60.92;96835.25;4965311;28;20457;-69
2021/06/11 09:52:56;;;;;;;6.45;3.80;;;;;;;21.75;61.34;96833.47;4964171;28;20513;-68
2021/06/11 09:55:41;;;;;;;4.75;3.47;;;;;;;21.87;60.70;96834.72;4963780;28;20679;-63
2021/06/11 09:58:19;;;;;;;4.57;3.90;;;;;;;21.38;60.75;96746.00;4965413;28;20037;-61
2021/06/11 10:00:49;;;;;;;3.92;3.63;;;;;;;22.13;59.53;96842.75;4964918;28;20408;-67
2021/06/11 10:03:24;;;;;;;7.97;4.50;;;;;;;20.76;59.69;96660.06;4965478;28;20054;-71
2021/06/11 10:05:51;;;;;;;6.65;4.72;;;;;;;21.23;63.21;96858.31;4964518;28;20039;-71
2021/06/11 10:08:18;;;;;;;6.43;4.63;;;;;;;22.03;59.66;96865.66;4960005;28;20046;-59
2021/06/11 10:10:45;;;;;;;3.88;3.47;;;;;;;22.65;57.76;96850.00;4967753;28;20477;-70
2021/06/11 10:13:13;;;;;;;4.30;3.53;;;;;;;23.25;55.68;96848.69;4960352;28;20058;-71
2021/06/11 10:15:40;;;;;;;6.25;4.60;;;;;;;23.20;53.34;96846.44;4962349;28;20622;-59
2021/06/11 10:18:06;;;;;;;7.70;4.28;;;;;;;23.11;55.44;96854.84;4963834;28;20042;-61
2021/06/11 10:20:32;;;;;;;7.22;5.47;;;;;;;23.15;53.38;96866.81;4964571;28;20130;-75
2021/06/11 10:22:57;;;;;;;5.65;4.80;;;;;;;23.16;54.15;96857.88;4965391;28;20545;-59
2021/06/11 10:25:24;;;;;;;5.22;4.07;;;;;;;23.04;54.62;96855.09;4963903;28;20038;-59
2021/06/11 10:27:50;;;;;;;6.47;4.22;;;;;;;23.08;54.15;96861.41;4965456;28;20035;-61
2021/06/11 10:30:16;;;;;;;21.27;10.68;;;;;;;23.18;54.33;96857.41;4964418;28;20031;-70
2021/06/11 10:32:48;;;;;;;13.88;7.80;;;;;;;23.46;53.18;96859.25;4964106;28;20034;-68
2021/06/11 10:35:34;;;;;;;3.35;3.05;;;;;;;23.62;51.44;96859.06;4963940;28;20037;-59
2021/06/11 10:38:00;;;;;;;3.00;2.70;;;;;;;23.38;52.71;96830.44;4963685;28;20081;-66
2021/06/11 10:40:40;;;;;;;3.53;2.75;;;;;;;23.66;53.19;96856.91;4958644;28;20074;-69
2021/06/11 10:43:25;;;;;;;4.35;2.92;;;;;;;23.80;52.51;96862.03;4954879;28;20648;-65
2021/06/11 10:45:52;;;;;;;3.90;3.22;;;;;;;23.83;53.29;96856.22;4964914;28;20030;-61
2021/06/11 10:48:18;;;;;;;4.00;3.60;;;;;;;23.53;52.68;96810.91;4964294;28;20113;-62
2021/06/11 10:50:44;;;;;;;3.47;3.15;;;;;;;23.40;53.11;96793.22;4962111;28;20037;-65
2021/06/11 10:53:27;;;;;;;7.28;4.40;;;;;;;23.91;54.22;96862.41;4964144;28;20042;-60
2021/06/11 10:56:09;;;;;;;4.03;3.60;;;;;;;24.11;53.58;96853.56;4964204;28;20111;-72
2021/06/11 10:58:35;;;;;;;4.10;3.67;;;;;;;23.62;53.97;96779.84;4954182;28;20138;-61
2021/06/11 11:01:27;;;;;;;4.55;3.90;;;;;;;23.75;54.56;96808.84;4963707;28;20142;-67
2021/06/11 11:03:56;;;;;;;3.90;3.33;;;;;;;24.08;54.13;96846.81;4964538;28;20066;-71
2021/06/11 11:06:33;;;;;;;5.90;3.65;;;;;;;23.82;55.36;96843.31;4964609;28;20058;-56
2021/06/11 11:09:02;;;;;;;5.20;3.42;;;;;;;23.83;56.07;96835.63;4964553;28;20497;-70
2021/06/11 11:11:36;;;;;;;4.03;3.65;;;;;;;24.20;53.59;96845.91;4962012;28;20035;-69
2021/06/11 11:14:05;;;;;;;3.60;3.30;;;;;;;24.14;52.03;96835.69;4963588;28;20062;-72
2021/06/11 11:16:36;;;;;;;4.85;4.35;;;;;;;23.78;52.98;96768.31;4962761;28;20050;-71
2021/06/11 11:19:03;;;;;;;6.85;3.63;;;;;;;24.10;51.91;96775.56;4963604;28;20540;-69
2021/06/11 11:21:29;;;;;;;20.98;10.45;;;;;;;23.99;52.82;96835.44;4963909;28;20525;-72
2021/06/11 11:23:57;;;;;;;6.03;3.38;;;;;;;23.71;52.92;96831.63;4964032;28;20039;-73
2021/06/11 11:26:41;;;;;;;4.07;3.55;;;;;;;24.24;51.90;96834.44;4961361;28;20034;-58
2021/06/11 11:29:06;;;;;;;3.97;3.35;;;;;;;24.26;53.82;96841.22;4965154;28;20593;-72
2021/06/11 11:31:32;;;;;;;5.25;3.70;;;;;;;24.13;53.08;96812.22;4967853;28;20120;-71
2021/06/11 11:33:57;;;;;;;4.82;3.53;;;;;;;24.42;52.55;96846.63;4967038;28;20038;-69
2021/06/11 11:36:23;;;;;;;6.03;4.10;;;;;;;24.32;52.33;96841.41;4966284;28;20034;-67
2021/06/11 11:38:49;;;;;;;19.00;10.70;;;;;;;23.41;53.07;96718.50;4967631;28;20050;-70
2021/06/11 11:41:15;;;;;;;8.02;6.60;;;;;;;23.10;53.20;96697.81;4966149;28;20025;-60
2021/06/11 11:43:40;;;;;;;14.98;7.97;;;;;;;23.15;53.04;96695.22;4962397;28;20327;-66